Time;durP1;ratioP1;P1;durP2;ratioP2;P2;SDS_P1;SDS_P2;PMS_P1;PMS_P2;Temp;Humidity;BMP_temperature;BMP_pressure;BME280_temperature;BME280_humidity;BME280_pressure;Samples;Min_cycle;Max_cycle;Signal;HPM_P1;HPM_P2
2023/01/16 00:01:43;;;;;;;1.13;0.37;;;7.50;99.90;;;;;;4954808;29;20208;-73
2023/01/16 00:04:09;;;;;;;1.03;0.50;;;7.40;99.90;;;;;;4943101;29;20203;-73
2023/01/16 00:06:35;;;;;;;1.43;0.60;;;7.50;99.90;;;;;;4936748;29;20208;-75
2023/01/16 00:09:02;;;;;;;0.97;0.60;;;7.40;99.90;;;;;;4937000;29;20185;-75
2023/01/16 00:11:28;;;;;;;2.00;0.50;;;7.40;99.90;;;;;;4937019;29;20173;-74
2023/01/16 00:13:53;;;;;;;1.33;0.53;;;7.40;99.90;;;;;;4936971;29;20211;-74
2023/01/16 00:16:20;;;;;;;0.97;0.40;;;7.30;99.90;;;;;;4931604;29;20193;-74
2023/01/16 00:18:46;;;;;;;2.70;0.60;;;7.40;99.90;;;;;;4934319;29;20210;-74
2023/01/16 00:21:14;;;;;;;1.10;0.40;;;7.30;99.90;;;;;;4936536;29;20208;-75
2023/01/16 00:23:40;;;;;;;1.53;0.60;;;7.30;99.90;;;;;;4924676;29;20189;-76
2023/01/16 00:26:09;;;;;;;1.30;0.60;;;7.30;99.90;;;;;;4917902;29;20213;-74
2023/01/16 00:28:37;;;;;;;1.23;0.60;;;7.30;99.90;;;;;;4918201;29;20182;-75
2023/01/16 00:31:06;;;;;;;2.67;0.67;;;7.30;99.90;;;;;;4932755;29;20236;-74
2023/01/16 00:33:33;;;;;;;1.00;0.60;;;7.20;99.90;;;;;;4934675;29;20210;-75
2023/01/16 00:36:01;;;;;;;1.50;0.60;;;7.20;99.90;;;;;;4936475;29;20196;-77
2023/01/16 00:38:27;;;;;;;1.00;0.50;;;7.20;99.90;;;;;;4935453;29;20193;-73
2023/01/16 00:40:52;;;;;;;1.47;0.50;;;7.10;99.90;;;;;;4938689;29;20192;-75
2023/01/16 00:43:18;;;;;;;1.90;0.53;;;7.20;99.90;;;;;;4928608;29;20182;-74
2023/01/16 00:45:44;;;;;;;0.87;0.50;;;7.10;99.90;;;;;;4935718;29;20209;-76
2023/01/16 00:48:10;;;;;;;1.90;0.67;;;7.10;99.90;;;;;;4940828;29;20260;-75
2023/01/16 00:50:35;;;;;;;0.97;0.50;;;7.10;99.90;;;;;;4939981;29;20178;-75
2023/01/16 00:53:01;;;;;;;1.00;0.50;;;7.00;99.90;;;;;;4940215;29;20197;-76
2023/01/16 00:55:29;;;;;;;2.10;0.53;;;7.10;99.90;;;;;;4940199;29;20177;-75
2023/01/16 00:57:57;;;;;;;2.27;0.50;;;7.00;99.90;;;;;;4940571;29;20201;-76
2023/01/16 01:00:22;;;;;;;2.03;0.40;;;7.10;99.90;;;;;;4940173;29;20182;-75
2023/01/16 01:02:48;;;;;;;1.30;0.40;;;7.10;99.90;;;;;;4940148;29;20180;-75
2023/01/16 01:05:15;;;;;;;1.63;0.57;;;7.10;99.90;;;;;;4939986;29;20205;-76
2023/01/16 01:07:40;;;;;;;0.83;0.53;;;7.10;99.90;;;;;;4939970;29;20239;-73
2023/01/16 01:10:06;;;;;;;0.93;0.40;;;7.20;99.90;;;;;;4921337;29;20178;-74
2023/01/16 01:12:32;;;;;;;0.80;0.50;;;7.20;99.90;;;;;;4931188;29;20192;-74
2023/01/16 01:14:57;;;;;;;0.67;0.50;;;7.20;99.90;;;;;;4921034;29;20174;-75
2023/01/16 01:17:25;;;;;;;0.80;0.50;;;7.20;99.90;;;;;;4936602;29;20174;-74
2023/01/16 01:19:53;;;;;;;1.37;0.47;;;7.20;99.90;;;;;;4920968;29;20178;-73
2023/01/16 01:22:19;;;;;;;0.60;0.33;;;7.30;99.90;;;;;;4920814;29;20178;-76
2023/01/16 01:24:49;;;;;;;0.80;0.33;;;7.30;99.90;;;;;;4938989;29;20236;-75
2023/01/16 01:27:15;;;;;;;1.93;0.40;;;7.30;99.90;;;;;;4939578;29;20233;-75
2023/01/16 01:29:41;;;;;;;0.80;0.50;;;7.30;99.90;;;;;;4951225;29;20204;-74
2023/01/16 01:32:07;;;;;;;1.67;0.60;;;7.30;99.90;;;;;;4941517;29;20182;-75
2023/01/16 01:34:33;;;;;;;0.60;0.33;;;7.30;99.90;;;;;;4926225;29;20208;-75
2023/01/16 01:37:01;;;;;;;0.40;0.30;;;7.30;99.90;;;;;;4939512;29;20232;-75
2023/01/16 01:39:30;;;;;;;0.77;0.40;;;7.30;99.90;;;;;;4939833;29;20240;-74
2023/01/16 01:42:41;;;;;;;0.67;0.30;;;7.40;99.90;;;;;;4939338;29;20212;-75
2023/01/16 01:44:55;;;;;;;1.00;0.60;;;7.40;99.90;;;;;;4939167;29;20177;-74
2023/01/16 01:47:34;;;;;;;1.23;0.53;;;7.40;99.90;;;;;;4939340;29;20193;-75
2023/01/16 01:50:13;;;;;;;0.50;0.30;;;7.40;99.90;;;;;;4939155;29;20197;-74
2023/01/16 01:52:39;;;;;;;0.40;0.30;;;7.40;99.90;;;;;;4937995;29;20178;-75
2023/01/16 01:55:08;;;;;;;0.43;0.30;;;7.40;99.90;;;;;;4938609;29;20173;-75
2023/01/16 01:57:47;;;;;;;0.53;0.30;;;7.40;99.90;;;;;;4927496;29;20288;-75
2023/01/16 02:00:22;;;;;;;1.00;0.40;;;7.40;99.90;;;;;;4931257;29;20184;-74
2023/01/16 02:03:12;;;;;;;1.07;0.50;;;7.40;99.90;;;;;;4928900;29;20209;-75
2023/01/16 02:05:44;;;;;;;0.37;0.30;;;7.40;99.90;;;;;;4920068;29;20205;-76
2023/01/16 02:08:13;;;;;;;1.03;0.50;;;7.40;99.90;;;;;;4919905;29;20242;-74
2023/01/16 02:11:01;;;;;;;1.37;0.40;;;7.40;99.90;;;;;;4919931;29;20177;-74
2023/01/16 02:13:26;;;;;;;0.50;0.30;;;7.30;99.90;;;;;;4934122;29;20186;-74
2023/01/16 02:21:45;;;;;;;0.30;0.30;;;7.30;99.90;;;;;;4920515;29;20157;-73
2023/01/16 02:24:20;;;;;;;1.37;0.40;;;7.30;99.90;;;;;;4920624;29;20209;-74
2023/01/16 02:26:50;;;;;;;0.70;0.40;;;7.30;99.90;;;;;;4919500;29;20207;-74
2023/01/16 02:29:36;;;;;;;0.60;0.30;;;7.30;99.90;;;;;;4935873;29;20241;-73
2023/01/16 02:32:04;;;;;;;0.97;0.40;;;7.30;99.90;;;;;;4927981;29;20196;-74
2023/01/16 02:34:56;;;;;;;1.10;0.40;;;7.30;99.90;;;;;;4938446;29;20205;-74
2023/01/16 02:37:34;;;;;;;1.03;0.43;;;7.20;99.90;;;;;;4926481;29;20190;-74
2023/01/16 02:40:25;;;;;;;2.47;0.50;;;7.20;99.90;;;;;;4938495;29;20170;-74
2023/01/16 02:43:02;;;;;;;1.97;1.00;;;7.20;99.90;;;;;;4935383;29;20178;-74
2023/01/16 02:45:49;;;;;;;0.50;0.33;;;7.20;99.90;;;;;;4938970;29;20269;-74
2023/01/16 02:48:31;;;;;;;1.60;0.70;;;7.10;99.90;;;;;;4920015;29;20225;-73
2023/01/16 02:51:01;;;;;;;1.60;0.70;;;7.10;99.90;;;;;;4919234;29;20166;-74
2023/01/16 02:53:35;;;;;;;0.93;0.50;;;7.10;99.90;;;;;;4944226;29;20173;-74
2023/01/16 02:56:08;;;;;;;1.53;0.60;;;7.00;99.90;;;;;;4938250;29;20192;-74
2023/01/16 02:58:41;;;;;;;2.33;0.50;;;7.00;99.90;;;;;;4935506;29;20208;-74
2023/01/16 03:01:11;;;;;;;2.13;0.70;;;6.90;99.90;;;;;;4918572;29;20208;-74
2023/01/16 03:03:56;;;;;;;0.70;0.43;;;6.90;99.90;;;;;;4935978;29;20174;-74
2023/01/16 03:06:43;;;;;;;1.57;0.40;;;6.90;99.90;;;;;;4934280;29;20221;-74
2023/01/16 03:09:40;;;;;;;2.20;0.60;;;6.90;99.90;;;;;;4927864;29;20178;-74
2023/01/16 03:12:39;;;;;;;2.97;0.77;;;6.90;99.90;;;;;;4897698;29;20182;-74
2023/01/16 03:15:21;;;;;;;1.53;0.80;;;6.80;99.90;;;;;;4919082;29;20170;-75
2023/01/16 03:17:59;;;;;;;1.30;0.57;;;6.70;99.90;;;;;;4919492;29;20225;-73
2023/01/16 03:20:35;;;;;;;0.80;0.47;;;6.70;99.90;;;;;;4945776;29;20240;-72
2023/01/16 03:23:28;;;;;;;1.27;0.37;;;6.60;99.90;;;;;;4940422;29;20181;-73
2023/01/16 03:26:09;;;;;;;1.47;0.70;;;6.60;99.90;;;;;;4937390;29;20245;-73
2023/01/16 03:28:49;;;;;;;1.13;0.50;;;6.60;99.90;;;;;;4937605;29;20184;-74
2023/01/16 03:31:23;;;;;;;1.37;0.60;;;6.50;99.90;;;;;;4945381;28;20189;-74
2023/01/16 03:34:17;;;;;;;1.47;0.53;;;6.50;99.90;;;;;;4937450;29;20169;-73
2023/01/16 03:36:58;;;;;;;0.80;0.40;;;6.50;99.90;;;;;;4915959;29;20193;-73
2023/01/16 03:39:34;;;;;;;1.60;0.50;;;6.50;99.90;;;;;;4937538;29;20217;-73
2023/01/16 03:42:08;;;;;;;0.70;0.40;;;6.50;99.90;;;;;;4937088;29;20177;-73
2023/01/16 03:44:51;;;;;;;1.17;0.50;;;6.50;99.90;;;;;;4934308;29;20190;-72
2023/01/16 03:47:36;;;;;;;1.87;0.50;;;6.50;99.90;;;;;;4935328;29;20205;-73
2023/01/16 03:50:07;;;;;;;0.93;0.53;;;6.60;99.90;;;;;;4933557;29;20173;-73
2023/01/16 03:52:43;;;;;;;0.90;0.43;;;6.60;99.90;;;;;;4937066;29;20323;-73
2023/01/16 03:55:20;;;;;;;1.23;0.40;;;6.60;99.90;;;;;;4943101;29;20184;-73
2023/01/16 03:58:01;;;;;;;1.90;0.60;;;6.70;99.90;;;;;;4945278;29;20197;-74
2023/01/16 04:00:47;;;;;;;1.47;0.50;;;6.70;99.90;;;;;;4937251;29;20181;-73
2023/01/16 04:03:39;;;;;;;1.00;0.50;;;6.70;99.90;;;;;;4936812;29;20181;-73
2023/01/16 04:06:17;;;;;;;1.80;0.50;;;6.80;99.90;;;;;;4918831;29;20234;-73
2023/01/16 04:08:44;;;;;;;2.07;0.60;;;6.80;99.90;;;;;;4918357;29;20190;-74
2023/01/16 04:11:12;;;;;;;1.77;0.50;;;6.80;99.90;;;;;;4926976;29;20210;-73
2023/01/16 04:13:39;;;;;;;1.50;0.60;;;6.90;99.90;;;;;;4936845;29;20185;-73
2023/01/16 04:16:09;;;;;;;1.53;0.50;;;6.90;99.90;;;;;;4941031;29;20193;-73
2023/01/16 04:18:36;;;;;;;1.07;0.60;;;6.90;99.90;;;;;;4931871;29;20203;-73
2023/01/16 04:21:04;;;;;;;0.90;0.50;;;6.90;99.90;;;;;;4940855;29;20177;-73
2023/01/16 04:23:32;;;;;;;1.40;0.50;;;6.90;99.90;;;;;;4948198;29;20216;-72
2023/01/16 04:25:58;;;;;;;1.07;0.47;;;7.00;99.90;;;;;;4939664;29;20209;-73
2023/01/16 04:28:23;;;;;;;1.57;0.60;;;7.00;99.90;;;;;;4940341;29;20196;-74
2023/01/16 04:30:49;;;;;;;3.60;0.70;;;7.00;99.90;;;;;;4940445;29;20315;-74
2023/01/16 04:33:15;;;;;;;1.43;0.53;;;7.10;99.90;;;;;;4937329;29;20253;-73
2023/01/16 04:35:40;;;;;;;1.50;0.60;;;7.00;99.90;;;;;;4940885;29;20193;-73
2023/01/16 04:38:06;;;;;;;1.13;0.60;;;7.10;99.90;;;;;;4940449;29;20192;-74
2023/01/16 04:40:31;;;;;;;1.90;0.67;;;7.10;99.90;;;;;;4947690;29;20216;-73
2023/01/16 04:42:57;;;;;;;2.37;0.60;;;7.10;99.90;;;;;;4951664;29;20244;-73
2023/01/16 04:45:23;;;;;;;1.07;0.60;;;7.10;99.90;;;;;;4940332;29;20197;-73
2023/01/16 04:47:50;;;;;;;1.07;0.60;;;7.10;99.90;;;;;;4940621;29;20192;-74
2023/01/16 04:50:16;;;;;;;1.07;0.70;;;7.10;99.90;;;;;;4940621;29;20211;-74
2023/01/16 04:52:42;;;;;;;1.13;0.63;;;7.10;99.90;;;;;;4940654;29;20181;-74
2023/01/16 04:55:09;;;;;;;1.87;0.60;;;7.10;99.90;;;;;;4940457;29;20395;-74
2023/01/16 04:57:35;;;;;;;1.73;0.70;;;7.10;99.90;;;;;;4940410;29;20189;-73
2023/01/16 05:00:01;;;;;;;1.67;0.40;;;7.20;99.90;;;;;;4940886;29;20208;-73
2023/01/16 05:02:26;;;;;;;0.63;0.43;;;7.10;99.90;;;;;;4930914;29;20212;-71
2023/01/16 05:04:54;;;;;;;0.90;0.50;;;7.10;99.90;;;;;;4936396;29;20185;-71
2023/01/16 05:07:25;;;;;;;1.00;0.50;;;7.20;99.90;;;;;;4945907;29;20258;-69
2023/01/16 05:09:50;;;;;;;1.97;0.70;;;7.20;99.90;;;;;;4948621;29;20189;-70
2023/01/16 05:12:16;;;;;;;1.10;0.60;;;7.30;99.90;;;;;;4943584;29;20182;-72
2023/01/16 05:14:41;;;;;;;0.60;0.50;;;7.30;99.90;;;;;;4955098;29;20181;-73
2023/01/16 05:17:07;;;;;;;1.97;0.57;;;7.30;99.90;;;;;;4958970;29;20192;-75
2023/01/16 05:19:33;;;;;;;0.57;0.30;;;7.30;99.90;;;;;;4960484;29;20263;-74
2023/01/16 05:21:59;;;;;;;0.37;0.30;;;7.40;99.90;;;;;;4960490;29;20184;-74
2023/01/16 05:24:27;;;;;;;1.03;0.40;;;7.40;99.90;;;;;;4960276;29;20210;-74
2023/01/16 05:26:52;;;;;;;0.87;0.40;;;7.40;99.90;;;;;;4944140;29;20201;-75
2023/01/16 05:29:20;;;;;;;1.80;0.53;;;7.30;99.90;;;;;;4934918;29;20289;-74
2023/01/16 05:31:46;;;;;;;2.13;0.70;;;7.40;99.90;;;;;;4939900;29;20224;-75
2023/01/16 05:34:12;;;;;;;0.60;0.50;;;7.40;99.90;;;;;;4931099;29;20218;-73
2023/01/16 05:36:39;;;;;;;1.20;0.60;;;7.40;99.90;;;;;;4924844;29;20260;-75
2023/01/16 05:39:08;;;;;;;1.60;0.53;;;7.40;99.90;;;;;;4939152;29;20188;-75
2023/01/16 05:41:33;;;;;;;1.40;0.47;;;7.30;99.90;;;;;;4940111;29;20204;-74
2023/01/16 05:43:59;;;;;;;1.63;0.50;;;7.40;99.90;;;;;;4942595;29;20185;-75
2023/01/16 05:46:25;;;;;;;1.00;0.50;;;7.40;99.90;;;;;;4940792;29;20209;-75
2023/01/16 05:48:52;;;;;;;2.37;1.00;;;7.40;99.90;;;;;;4934646;29;20228;-76
2023/01/16 05:51:18;;;;;;;2.10;0.80;;;7.40;99.90;;;;;;4934663;29;20257;-76
2023/01/16 05:53:48;;;;;;;1.13;0.70;;;7.40;99.90;;;;;;4928782;29;20182;-75
2023/01/16 05:56:14;;;;;;;0.90;0.57;;;7.40;99.90;;;;;;4937216;29;20182;-76
2023/01/16 05:58:39;;;;;;;1.10;0.50;;;7.40;99.90;;;;;;4937273;29;20185;-74
2023/01/16 06:01:05;;;;;;;1.37;0.67;;;7.40;99.90;;;;;;4940086;29;20213;-76
2023/01/16 06:03:33;;;;;;;1.47;0.77;;;7.40;99.90;;;;;;4943207;29;20265;-75
2023/01/16 06:05:58;;;;;;;1.03;0.53;;;7.40;99.90;;;;;;4940705;29;20216;-76
2023/01/16 06:08:25;;;;;;;1.40;0.70;;;7.50;99.90;;;;;;4941496;29;20181;-75
2023/01/16 06:10:53;;;;;;;0.87;0.50;;;7.40;99.90;;;;;;4941104;29;20212;-76
2023/01/16 06:13:18;;;;;;;1.10;0.60;;;7.50;99.90;;;;;;4940808;29;20182;-75
2023/01/16 06:15:44;;;;;;;1.07;0.60;;;7.40;99.90;;;;;;4940635;29;20324;-75
2023/01/16 06:18:14;;;;;;;1.73;0.60;;;7.40;99.90;;;;;;4941116;29;20185;-75
2023/01/16 06:20:39;;;;;;;1.40;0.83;;;7.40;99.90;;;;;;4945562;28;20183;-75
2023/01/16 06:23:08;;;;;;;1.63;0.60;;;7.40;99.90;;;;;;4955115;29;20213;-74
2023/01/16 06:25:34;;;;;;;1.17;0.53;;;7.40;99.90;;;;;;4933061;29;20226;-75
2023/01/16 06:28:00;;;;;;;2.70;0.70;;;7.40;99.90;;;;;;4939559;28;20201;-71
2023/01/16 06:30:25;;;;;;;2.07;0.90;;;7.60;99.90;;;;;;4941954;28;20185;-70
2023/01/16 06:32:51;;;;;;;2.43;1.00;;;7.40;99.90;;;;;;4941768;28;20202;-70
2023/01/16 06:35:19;;;;;;;1.87;0.90;;;7.40;99.90;;;;;;4966761;28;20169;-71
2023/01/16 06:37:45;;;;;;;1.00;0.90;;;7.40;99.90;;;;;;4944819;28;20177;-76
2023/01/16 06:40:10;;;;;;;2.43;0.80;;;7.40;99.90;;;;;;4923121;29;20188;-76
2023/01/16 06:42:38;;;;;;;0.83;0.70;;;7.40;99.90;;;;;;4920123;29;20178;-75
2023/01/16 06:45:04;;;;;;;1.47;0.80;;;7.40;99.90;;;;;;4919898;29;20186;-76
2023/01/16 06:47:31;;;;;;;1.90;0.77;;;7.40;99.90;;;;;;4919370;29;20304;-74
2023/01/16 06:49:56;;;;;;;1.43;0.80;;;7.50;99.90;;;;;;4919536;29;20205;-75
2023/01/16 06:52:24;;;;;;;1.97;0.80;;;7.40;99.90;;;;;;4919074;29;20177;-76
2023/01/16 06:54:55;;;;;;;2.40;0.70;;;7.40;99.90;;;;;;4919476;29;20190;-73
2023/01/16 06:57:21;;;;;;;3.13;0.77;;;7.60;99.90;;;;;;4918905;29;20220;-75
2023/01/16 06:59:50;;;;;;;1.73;1.03;;;7.40;99.90;;;;;;4934908;29;20228;-76
2023/01/16 07:02:15;;;;;;;1.93;0.80;;;7.40;99.90;;;;;;4936914;29;20205;-72
2023/01/16 07:04:41;;;;;;;1.83;0.73;;;7.40;99.90;;;;;;4936960;29;20186;-75
2023/01/16 07:07:06;;;;;;;1.53;0.80;;;7.50;99.90;;;;;;4937190;29;20201;-75
2023/01/16 07:09:32;;;;;;;1.53;0.80;;;7.40;99.90;;;;;;4937081;29;20177;-74
2023/01/16 07:12:00;;;;;;;1.87;0.80;;;7.40;99.90;;;;;;4927477;29;20181;-74
2023/01/16 07:22:46;;;;;;;1.33;0.70;;;7.50;99.90;;;;;;4937540;29;20237;-75
2023/01/16 07:25:25;;;;;;;2.43;0.80;;;7.50;99.90;;;;;;4936856;29;20276;-76
2023/01/16 07:27:51;;;;;;;1.30;0.80;;;7.50;99.90;;;;;;4936891;29;20209;-75
2023/01/16 07:30:21;;;;;;;2.80;0.80;;;7.60;99.90;;;;;;4936893;29;20211;-75
2023/01/16 07:32:47;;;;;;;1.40;0.70;;;7.50;99.90;;;;;;4936923;29;20204;-73
2023/01/16 07:35:13;;;;;;;1.63;0.70;;;7.60;99.90;;;;;;4936805;29;20184;-74
2023/01/16 07:37:39;;;;;;;3.23;0.90;;;7.60;99.90;;;;;;4936542;29;20205;-74
2023/01/16 07:40:05;;;;;;;1.63;0.80;;;7.60;99.90;;;;;;4936841;29;20188;-74
2023/01/16 07:42:31;;;;;;;2.00;0.80;;;7.60;99.90;;;;;;4936631;29;20181;-74
2023/01/16 07:44:59;;;;;;;2.17;0.80;;;7.60;99.90;;;;;;4936829;29;20177;-72
2023/01/16 07:47:26;;;;;;;2.13;0.87;;;7.70;99.90;;;;;;4936646;29;20207;-74
2023/01/16 07:49:52;;;;;;;2.77;0.90;;;7.60;99.90;;;;;;4936256;29;20201;-74
2023/01/16 07:52:18;;;;;;;1.93;0.80;;;7.70;99.90;;;;;;4936725;29;20195;-74
2023/01/16 07:54:43;;;;;;;2.23;0.93;;;7.60;99.90;;;;;;4936661;29;20265;-75
2023/01/16 07:57:11;;;;;;;2.30;0.70;;;7.60;99.90;;;;;;4936887;29;20177;-73
2023/01/16 07:59:39;;;;;;;1.20;0.70;;;7.50;99.90;;;;;;4936556;29;20209;-74
2023/01/16 08:02:05;;;;;;;2.20;0.80;;;7.50;99.90;;;;;;4926885;29;20189;-75
2023/01/16 08:04:30;;;;;;;2.43;0.90;;;7.40;99.90;;;;;;4933375;29;20188;-73
2023/01/16 08:06:56;;;;;;;1.93;0.80;;;7.40;99.90;;;;;;4936520;29;20228;-74
2023/01/16 08:09:21;;;;;;;2.90;0.67;;;7.30;99.90;;;;;;4936652;29;20181;-74
2023/01/16 08:11:47;;;;;;;2.50;0.77;;;7.30;99.90;;;;;;4936406;29;20504;-74
2023/01/16 08:14:13;;;;;;;2.37;0.70;;;7.30;99.90;;;;;;4936462;29;20188;-74
2023/01/16 08:16:41;;;;;;;1.73;0.90;;;7.20;99.90;;;;;;4936342;29;20209;-73
2023/01/16 08:19:09;;;;;;;3.13;0.80;;;7.20;99.90;;;;;;4920805;29;20193;-74
2023/01/16 08:21:35;;;;;;;1.20;0.70;;;7.20;99.90;;;;;;4917647;29;20326;-74
2023/01/16 08:24:00;;;;;;;2.87;0.80;;;7.30;99.90;;;;;;4917384;29;20189;-73
2023/01/16 08:26:26;;;;;;;2.47;1.00;;;7.20;99.90;;;;;;4917112;29;20206;-75
2023/01/16 08:28:54;;;;;;;1.23;0.60;;;7.10;99.90;;;;;;4917312;29;20176;-74
2023/01/16 08:31:20;;;;;;;1.80;0.87;;;7.20;99.90;;;;;;4928993;29;20185;-75
2023/01/16 08:33:49;;;;;;;2.27;0.87;;;7.10;99.90;;;;;;4926446;29;20182;-74
2023/01/16 08:36:16;;;;;;;2.00;0.83;;;7.10;99.90;;;;;;4928930;29;20181;-74
2023/01/16 08:38:43;;;;;;;2.50;1.00;;;7.10;99.90;;;;;;4936349;29;20212;-74
2023/01/16 08:52:09;;;;;;;1.30;0.80;;;7.10;99.90;;;;;;4918067;29;20197;-73
2023/01/16 08:54:34;;;;;;;1.50;0.70;;;7.10;99.90;;;;;;4917246;29;20427;-74
2023/01/16 08:57:00;;;;;;;1.53;0.73;;;7.10;99.90;;;;;;4923447;29;20178;-74
2023/01/16 08:59:34;;;;;;;1.10;0.70;;;7.20;99.90;;;;;;4936186;29;20206;-73
2023/01/16 09:02:01;;;;;;;1.13;0.50;;;7.10;99.90;;;;;;4922133;29;20178;-75
2023/01/16 09:04:27;;;;;;;3.27;0.60;;;7.10;99.90;;;;;;4920574;29;20180;-73
2023/01/16 09:06:53;;;;;;;1.50;0.60;;;7.10;99.90;;;;;;4939343;29;20205;-74
2023/01/16 09:09:19;;;;;;;0.90;0.50;;;7.10;99.90;;;;;;4939506;29;20176;-74
2023/01/16 09:14:31;;;;;;;2.83;0.70;;;7.20;99.90;;;;;;4940474;29;20434;-74
2023/01/16 09:16:57;;;;;;;0.50;0.47;;;7.10;99.90;;;;;;4939186;29;20212;-75
2023/01/16 09:19:23;;;;;;;0.87;0.60;;;7.10;99.90;;;;;;4939576;29;20181;-75
2023/01/16 09:21:51;;;;;;;1.00;0.57;;;7.10;99.90;;;;;;4939389;29;20234;-75
2023/01/16 09:24:19;;;;;;;1.10;0.50;;;7.10;99.90;;;;;;4939307;29;20200;-73
2023/01/16 09:26:44;;;;;;;1.60;0.57;;;7.00;99.90;;;;;;4938939;29;20213;-74
2023/01/16 09:29:12;;;;;;;1.03;0.53;;;7.00;99.90;;;;;;4939195;29;20253;-74
2023/01/16 09:31:38;;;;;;;1.67;0.70;;;7.00;99.90;;;;;;4951103;29;20209;-72
2023/01/16 09:34:03;;;;;;;1.70;0.53;;;7.00;99.90;;;;;;4943396;29;20209;-73
2023/01/16 09:36:29;;;;;;;1.37;0.70;;;7.10;99.90;;;;;;4938972;29;20189;-73
2023/01/16 09:38:55;;;;;;;2.27;0.50;;;7.10;99.90;;;;;;4931858;29;20192;-72
2023/01/16 09:44:11;;;;;;;0.90;0.50;;;7.00;99.90;;;;;;4939860;29;20247;-71
2023/01/16 09:46:44;;;;;;;0.97;0.40;;;7.10;99.90;;;;;;4938938;29;20193;-74
2023/01/16 09:49:25;;;;;;;1.83;0.43;;;7.10;99.90;;;;;;4938787;29;20208;-72
2023/01/16 10:00:34;;;;;;;0.50;0.40;;;7.10;99.90;;;;;;4920564;29;20180;-74
2023/01/16 10:03:00;;;;;;;1.17;0.50;;;7.10;99.90;;;;;;4919613;29;20178;-73
2023/01/16 10:05:39;;;;;;;0.90;0.60;;;7.10;99.90;;;;;;4919006;29;20273;-74
2023/01/16 10:08:07;;;;;;;1.90;0.60;;;7.10;99.90;;;;;;4919631;29;20174;-73
2023/01/16 10:11:01;;;;;;;0.93;0.53;;;7.10;99.90;;;;;;4919361;29;20288;-74
2023/01/16 10:13:40;;;;;;;0.90;0.50;;;7.10;99.90;;;;;;4919328;29;20233;-74
2023/01/16 10:16:17;;;;;;;1.90;0.60;;;7.10;99.90;;;;;;4932082;29;20209;-74
2023/01/16 10:19:07;;;;;;;0.73;0.60;;;7.10;99.90;;;;;;4938292;29;20212;-75
2023/01/16 10:22:01;;;;;;;0.73;0.50;;;7.10;99.90;;;;;;4938215;29;20255;-74
2023/01/16 10:24:54;;;;;;;1.10;0.67;;;7.10;99.90;;;;;;4939840;29;20214;-74
2023/01/16 10:27:45;;;;;;;0.60;0.40;;;7.00;99.90;;;;;;4924872;29;20244;-73
2023/01/16 10:30:20;;;;;;;0.67;0.47;;;7.00;99.90;;;;;;4911997;29;20208;-73
2023/01/16 10:33:04;;;;;;;0.70;0.50;;;7.10;99.90;;;;;;4928032;29;20292;-73
2023/01/16 10:35:38;;;;;;;0.83;0.50;;;7.00;99.90;;;;;;4937279;29;20275;-75
2023/01/16 10:38:17;;;;;;;0.93;0.60;;;7.00;99.90;;;;;;4938058;29;20165;-74
2023/01/16 10:40:44;;;;;;;0.47;0.40;;;7.10;99.90;;;;;;4934790;29;20162;-74
2023/01/16 10:51:49;;;;;;;0.60;0.50;;;7.10;99.90;;;;;;4938692;29;20169;-75
2023/01/16 10:54:17;;;;;;;1.83;0.60;;;7.20;99.90;;;;;;4923915;29;20269;-75
2023/01/16 10:56:43;;;;;;;1.33;0.60;;;7.20;99.90;;;;;;4918729;29;20325;-74
2023/01/16 10:59:12;;;;;;;0.77;0.50;;;7.20;99.90;;;;;;4930349;29;20246;-75
2023/01/16 11:01:40;;;;;;;0.70;0.60;;;7.30;99.90;;;;;;4937338;29;20295;-74
2023/01/16 11:04:10;;;;;;;1.30;0.80;;;7.30;99.90;;;;;;4937330;29;20205;-74
2023/01/16 11:06:40;;;;;;;1.10;0.53;;;7.30;99.90;;;;;;4937030;29;20209;-73
2023/01/16 11:09:06;;;;;;;0.37;0.37;;;7.30;99.90;;;;;;4937621;29;20348;-74
2023/01/16 11:20:31;;;;;;;0.93;0.53;;;7.40;99.90;;;;;;4919065;29;20212;-74
2023/01/16 11:22:58;;;;;;;0.67;0.50;;;7.40;99.90;;;;;;4926792;29;20186;-73
2023/01/16 11:25:25;;;;;;;0.43;0.40;;;7.50;99.90;;;;;;4917021;29;20206;-74
2023/01/16 11:27:54;;;;;;;0.90;0.70;;;7.60;99.90;;;;;;4927275;29;20208;-75
2023/01/16 11:30:32;;;;;;;0.60;0.43;;;7.70;99.90;;;;;;4936494;29;20384;-75
2023/01/16 11:33:06;;;;;;;0.87;0.60;;;7.70;99.90;;;;;;4936975;29;20204;-75
2023/01/16 11:35:35;;;;;;;1.10;0.60;;;7.80;99.90;;;;;;4928262;29;20196;-75
2023/01/16 11:38:05;;;;;;;0.83;0.60;;;7.90;99.90;;;;;;4917973;29;20181;-75
2023/01/16 11:40:36;;;;;;;1.00;0.60;;;8.00;99.90;;;;;;4927706;29;20177;-75
2023/01/16 11:46:02;;;;;;;1.37;0.70;;;8.20;99.90;;;;;;4937568;29;20224;-73
2023/01/16 11:48:33;;;;;;;2.30;0.50;;;8.40;99.90;;;;;;4934650;29;20177;-75
2023/01/16 11:50:59;;;;;;;1.20;0.60;;;8.50;99.90;;;;;;4936816;29;20183;-73
2023/01/16 11:53:33;;;;;;;1.00;0.60;;;8.50;99.90;;;;;;4933161;29;20198;-73
2023/01/16 11:56:27;;;;;;;0.60;0.60;;;8.50;99.90;;;;;;4924109;29;20196;-74
2023/01/16 11:59:07;;;;;;;1.90;0.70;;;8.40;99.90;;;;;;4935966;29;20201;-74
2023/01/16 12:05:53;;;;;;;1.17;0.60;;;8.30;99.90;;;;;;4917441;29;20240;-74
2023/01/16 12:08:06;;;;;;;2.10;0.67;;;8.20;99.90;;;;;;4936804;29;20209;-74
2023/01/16 12:10:56;;;;;;;0.70;0.60;;;8.10;99.90;;;;;;4906917;29;20194;-74
2023/01/16 12:16:57;;;;;;;2.73;0.60;;;8.00;99.90;;;;;;4904759;29;20305;-74
2023/01/16 12:19:38;;;;;;;1.53;0.60;;;7.90;99.90;;;;;;4910411;29;20229;-74
2023/01/16 12:22:19;;;;;;;1.47;0.80;;;7.90;99.90;;;;;;4917550;29;20309;-73
2023/01/16 12:25:01;;;;;;;1.43;0.80;;;7.90;99.90;;;;;;4925661;29;20205;-73
2023/01/16 12:27:58;;;;;;;1.73;0.70;;;7.70;99.90;;;;;;4936220;29;20216;-73
2023/01/16 12:31:00;;;;;;;1.30;0.90;;;7.80;99.90;;;;;;4936051;29;20231;-75
2023/01/16 12:33:42;;;;;;;1.90;0.80;;;8.00;99.90;;;;;;4929327;29;20205;-74
2023/01/16 12:36:14;;;;;;;1.63;0.70;;;8.30;99.90;;;;;;4929159;29;20218;-74
2023/01/16 12:38:50;;;;;;;2.47;0.90;;;8.60;99.90;;;;;;4924597;29;20204;-74
2023/01/16 12:44:14;;;;;;;1.80;0.70;;;8.70;99.90;;;;;;4921892;29;20177;-74
2023/01/16 12:46:52;;;;;;;1.47;0.77;;;8.70;99.90;;;;;;4939595;29;20506;-75
2023/01/16 12:49:45;;;;;;;0.87;0.70;;;8.60;99.90;;;;;;4939714;29;20244;-74
2023/01/16 12:52:29;;;;;;;1.83;0.70;;;8.50;99.90;;;;;;4920845;29;20197;-74
2023/01/16 12:55:20;;;;;;;0.80;0.60;;;8.40;99.90;;;;;;4922186;29;20185;-75
2023/01/16 12:58:15;;;;;;;1.67;0.60;;;8.40;99.90;;;;;;4939926;29;20205;-75
2023/01/16 13:01:19;;;;;;;1.07;0.53;;;8.20;99.90;;;;;;4939562;29;20184;-74
2023/01/16 13:04:02;;;;;;;4.10;0.50;;;8.20;99.90;;;;;;4920588;29;20288;-74
2023/01/16 13:06:50;;;;;;;1.17;0.70;;;8.30;99.90;;;;;;4935880;29;20204;-74
2023/01/16 13:09:23;;;;;;;1.70;0.80;;;8.30;99.90;;;;;;4939641;29;20198;-75
2023/01/16 13:15:09;;;;;;;0.90;0.60;;;8.20;99.90;;;;;;4921376;29;20285;-73
2023/01/16 13:18:03;;;;;;;3.80;0.97;;;8.10;99.90;;;;;;4920563;29;20181;-73
2023/01/16 13:20:30;;;;;;;1.80;0.67;;;8.10;99.90;;;;;;4934319;29;20256;-75
2023/01/16 13:23:02;;;;;;;0.50;0.50;;;8.10;99.90;;;;;;4939111;29;20195;-74
2023/01/16 13:25:35;;;;;;;1.07;0.83;;;8.00;99.90;;;;;;4939208;29;20210;-75
2023/01/16 13:28:25;;;;;;;0.53;0.50;;;8.00;99.90;;;;;;4939147;29;20244;-74
2023/01/16 13:30:58;;;;;;;1.23;0.60;;;8.00;99.90;;;;;;4942391;29;20213;-75
2023/01/16 13:33:35;;;;;;;0.87;0.60;;;7.90;99.90;;;;;;4939207;29;20177;-75
2023/01/16 13:36:16;;;;;;;1.07;0.67;;;7.90;99.90;;;;;;4939006;29;20205;-75
2023/01/16 13:39:02;;;;;;;1.10;0.80;;;7.90;99.90;;;;;;4937733;29;20174;-73
2023/01/16 13:41:43;;;;;;;1.53;0.70;;;7.90;99.90;;;;;;4920242;29;20205;-73
2023/01/16 13:47:11;;;;;;;0.87;0.63;;;7.80;99.90;;;;;;4929814;29;20329;-74
2023/01/16 13:49:38;;;;;;;2.80;0.63;;;7.80;99.90;;;;;;4938813;29;20157;-74
2023/01/16 13:52:04;;;;;;;0.70;0.60;;;7.80;99.90;;;;;;4938537;29;20280;-74
2023/01/16 13:54:42;;;;;;;0.87;0.60;;;7.80;99.90;;;;;;4935323;29;20551;-76
2023/01/16 13:57:24;;;;;;;0.87;0.60;;;7.80;99.90;;;;;;4932419;29;20211;-75
2023/01/16 13:59:52;;;;;;;1.13;0.77;;;7.90;99.90;;;;;;4938616;29;20185;-74
2023/01/16 14:02:36;;;;;;;0.80;0.57;;;8.00;99.90;;;;;;4920964;29;20221;-73
2023/01/16 14:05:11;;;;;;;0.63;0.60;;;7.90;99.90;;;;;;4919554;29;20241;-73
2023/01/16 14:10:42;;;;;;;0.60;0.50;;;8.00;99.90;;;;;;4938968;29;20421;-73
2023/01/16 14:13:21;;;;;;;1.17;0.60;;;8.00;99.90;;;;;;4937971;29;20209;-74
2023/01/16 14:18:39;;;;;;;0.90;0.67;;;8.00;99.90;;;;;;4938885;29;20208;-74
2023/01/16 14:21:21;;;;;;;0.70;0.60;;;8.00;99.90;;;;;;4937991;29;20186;-74
2023/01/16 14:24:05;;;;;;;0.90;0.60;;;7.90;99.90;;;;;;4938194;29;20208;-74
2023/01/16 14:26:37;;;;;;;1.27;0.60;;;7.90;99.90;;;;;;4938082;29;20205;-74
2023/01/16 14:29:11;;;;;;;0.67;0.67;;;7.90;99.90;;;;;;4937963;29;20243;-73
2023/01/16 14:32:01;;;;;;;1.03;0.60;;;8.00;99.90;;;;;;4937824;29;20189;-74
2023/01/16 14:34:32;;;;;;;1.37;0.67;;;8.00;99.90;;;;;;4936936;29;20193;-73
2023/01/16 14:37:15;;;;;;;1.00;0.63;;;7.90;99.90;;;;;;4936269;29;20257;-73
2023/01/16 14:39:54;;;;;;;1.13;0.60;;;7.90;99.90;;;;;;4935746;29;20217;-72
2023/01/16 14:56:43;;;;;;;2.10;0.60;;;7.80;99.90;;;;;;4938087;29;20216;-73
2023/01/16 14:59:11;;;;;;;0.50;0.50;;;7.80;99.90;;;;;;4938470;29;20197;-74